createdAt,value
2023-04-26T00:02:11.910Z,48.24
2023-04-26T00:04:40.493Z,48.64
2023-04-26T00:07:08.588Z,48.48
2023-04-26T00:09:36.450Z,47.94
2023-04-26T00:12:04.458Z,47.83
2023-04-26T00:14:32.281Z,48.24
2023-04-26T00:17:00.079Z,47.79
2023-04-26T00:19:27.897Z,47.87
2023-04-26T00:21:55.796Z,47.83
2023-04-26T00:24:23.841Z,48.09
2023-04-26T00:26:55.491Z,48.17
2023-04-26T00:29:23.377Z,47.76
2023-04-26T00:31:52.086Z,48.04
2023-04-26T00:34:19.772Z,48.17
2023-04-26T00:36:47.520Z,48.19
2023-04-26T00:39:15.267Z,47.86
2023-04-26T00:41:43.425Z,47.98
2023-04-26T00:44:11.372Z,48.00
2023-04-26T00:46:39.332Z,47.92
2023-04-26T00:49:07.117Z,47.71
2023-04-26T00:51:36.715Z,47.34
2023-04-26T00:54:04.441Z,47.90
2023-04-26T00:56:33.049Z,47.93
2023-04-26T00:59:01.685Z,47.65
2023-04-26T01:01:30.560Z,47.75
2023-04-26T01:03:59.018Z,47.73
2023-04-26T01:06:33.412Z,47.90
2023-04-26T01:09:05.281Z,47.92
2023-04-26T01:11:33.702Z,47.74
2023-04-26T01:14:05.577Z,47.77
2023-04-26T01:16:34.530Z,47.75
2023-04-26T01:19:12.794Z,47.68
2023-04-26T01:21:41.165Z,48.19
2023-04-26T01:24:13.277Z,47.98
2023-04-26T01:26:46.029Z,47.71
2023-04-26T01:29:21.630Z,48.17
2023-04-26T01:31:49.774Z,48.03
2023-04-26T01:34:17.597Z,47.82
2023-04-26T01:36:47.165Z,48.19
2023-04-26T01:39:15.278Z,48.36
2023-04-26T01:41:44.459Z,48.18
2023-04-26T01:44:12.242Z,47.95
2023-04-26T01:46:40.215Z,47.99
2023-04-26T01:49:08.002Z,48.00
2023-04-26T01:51:36.507Z,47.76
2023-04-26T01:54:04.566Z,47.93
2023-04-26T01:56:33.418Z,47.93
2023-04-26T01:59:02.279Z,48.12
2023-04-26T02:01:31.594Z,48.08
2023-04-26T02:03:59.676Z,47.94
2023-04-26T02:06:28.286Z,48.04
2023-04-26T02:08:57.316Z,48.31
2023-04-26T02:11:27.155Z,48.16
2023-04-26T02:13:54.953Z,47.95
2023-04-26T02:16:23.025Z,47.93
2023-04-26T02:18:51.166Z,48.00
2023-04-26T02:21:19.806Z,47.72
2023-04-26T02:23:48.254Z,47.82
2023-04-26T02:26:16.098Z,47.68
2023-04-26T02:28:44.455Z,47.83
2023-04-26T02:31:12.285Z,47.40
2023-04-26T02:33:40.005Z,47.86
2023-04-26T02:36:08.263Z,47.75
2023-04-26T02:38:36.869Z,47.50
2023-04-26T02:41:06.113Z,47.79
2023-04-26T02:43:34.680Z,47.33
2023-04-26T02:46:02.658Z,47.54
2023-04-26T02:48:31.988Z,47.77
2023-04-26T02:51:00.588Z,47.92
2023-04-26T02:53:31.240Z,47.96
2023-04-26T02:56:01.869Z,47.79
2023-04-26T02:58:29.917Z,47.97
2023-04-26T03:01:01.082Z,47.89
2023-04-26T03:03:31.364Z,47.93
2023-04-26T03:05:59.233Z,48.22
2023-04-26T03:08:26.991Z,48.08
2023-04-26T03:10:54.748Z,48.20
2023-04-26T03:13:25.773Z,48.17
2023-04-26T03:15:56.107Z,48.44
2023-04-26T03:18:23.936Z,48.08
2023-04-26T03:20:52.690Z,47.99
2023-04-26T03:23:24.457Z,48.14
2023-04-26T03:25:53.378Z,47.96
2023-04-26T03:28:21.654Z,48.05
2023-04-26T03:30:50.282Z,48.26
2023-04-26T03:33:18.723Z,47.84
2023-04-26T03:35:46.661Z,47.77
2023-04-26T03:38:15.901Z,47.60
2023-04-26T03:40:43.994Z,47.67
2023-04-26T03:43:12.483Z,47.81
2023-04-26T03:45:40.371Z,47.60
2023-04-26T03:48:08.466Z,47.76
2023-04-26T03:50:36.698Z,47.79
2023-04-26T03:53:04.608Z,47.92
2023-04-26T03:55:32.620Z,47.58
2023-04-26T03:58:00.939Z,47.43
2023-04-26T04:00:29.049Z,47.92
2023-04-26T04:02:57.152Z,48.00
2023-04-26T04:05:26.351Z,48.37
2023-04-26T04:07:54.573Z,48.53
2023-04-26T04:10:23.526Z,48.21
2023-04-26T04:12:52.050Z,48.29
2023-04-26T04:15:20.945Z,48.69
2023-04-26T04:17:49.728Z,49.10
2023-04-26T04:20:17.877Z,48.53
2023-04-26T04:22:46.315Z,48.34
2023-04-26T04:25:14.413Z,48.93
2023-04-26T04:27:43.706Z,48.50
2023-04-26T04:30:12.336Z,48.68
2023-04-26T04:32:47.018Z,49.19
2023-04-26T04:35:17.242Z,48.71
2023-04-26T04:37:45.697Z,48.19
2023-04-26T04:40:14.297Z,48.38
2023-04-26T04:42:46.789Z,48.17
2023-04-26T04:45:16.116Z,47.70
2023-04-26T04:47:45.496Z,47.69
2023-04-26T04:50:14.618Z,47.68
2023-04-26T04:52:43.354Z,48.09
2023-04-26T04:55:12.828Z,48.21
2023-04-26T04:57:43.028Z,48.24
2023-04-26T05:00:15.864Z,48.47
2023-04-26T05:02:55.000Z,48.69
2023-04-26T05:05:23.349Z,48.28
2023-04-26T05:07:51.230Z,48.53
2023-04-26T05:10:19.054Z,48.37
2023-04-26T05:12:46.902Z,48.47
2023-04-26T05:15:14.934Z,48.57
2023-04-26T05:17:42.992Z,48.71
2023-04-26T05:20:23.245Z,48.86
2023-04-26T05:22:51.948Z,49.12
2023-04-26T05:25:22.326Z,48.87
2023-04-26T05:27:54.280Z,48.82
2023-04-26T05:30:41.300Z,48.91
2023-04-26T05:33:29.455Z,49.26
2023-04-26T05:36:11.776Z,49.69
2023-04-26T05:38:42.660Z,49.68
2023-04-26T05:41:10.828Z,49.28
2023-04-26T05:43:39.390Z,49.35
2023-04-26T05:46:07.613Z,49.54
2023-04-26T05:48:35.349Z,49.63
2023-04-26T05:51:03.214Z,49.40
2023-04-26T05:53:31.330Z,49.30
2023-04-26T05:55:59.015Z,49.60
2023-04-26T05:58:26.974Z,49.27
2023-04-26T06:00:57.021Z,49.33
2023-04-26T06:03:26.306Z,49.40
2023-04-26T06:05:55.034Z,49.29
2023-04-26T06:08:25.414Z,49.50
2023-04-26T06:10:54.886Z,49.66
2023-04-26T06:13:22.708Z,49.65
2023-04-26T06:15:55.061Z,49.59
2023-04-26T06:18:22.908Z,49.91
2023-04-26T06:20:51.605Z,49.88
2023-04-26T06:23:20.410Z,50.00
2023-04-26T06:25:48.641Z,49.76
2023-04-26T06:28:16.943Z,49.75
2023-04-26T06:30:44.746Z,49.87
2023-04-26T06:33:12.728Z,49.75
2023-04-26T06:35:41.913Z,49.93
2023-04-26T06:38:12.861Z,49.91
2023-04-26T06:40:40.750Z,49.67
2023-04-26T06:43:09.530Z,49.51
2023-04-26T06:46:06.750Z,49.33
2023-04-26T06:48:34.523Z,49.27
2023-04-26T06:51:08.669Z,49.15
2023-04-26T06:53:37.320Z,49.22
2023-04-26T06:56:05.322Z,49.26
2023-04-26T06:58:33.186Z,49.40
2023-04-26T07:01:01.440Z,49.19
2023-04-26T07:03:29.652Z,49.45
2023-04-26T07:05:57.502Z,49.28
2023-04-26T07:08:25.384Z,49.03
2023-04-26T07:10:53.220Z,49.44
2023-04-26T07:13:21.410Z,49.59
2023-04-26T07:15:49.613Z,49.56
2023-04-26T07:18:17.509Z,49.32
2023-04-26T07:20:45.278Z,49.45
2023-04-26T07:23:13.776Z,49.59
2023-04-26T07:25:41.599Z,49.50
2023-04-26T07:28:09.569Z,49.31
2023-04-26T07:30:37.454Z,49.03
2023-04-26T07:33:05.314Z,48.89
2023-04-26T07:35:35.534Z,48.79
2023-04-26T07:38:03.370Z,49.14
2023-04-26T07:40:31.563Z,48.86
2023-04-26T07:42:59.312Z,48.91
2023-04-26T07:45:27.051Z,49.06
2023-04-26T07:47:54.912Z,49.11
2023-04-26T07:50:22.790Z,49.28
2023-04-26T07:52:51.437Z,49.38
2023-04-26T07:55:19.264Z,49.18
2023-04-26T07:57:50.042Z,49.35
2023-04-26T08:00:19.662Z,49.04
2023-04-26T08:02:47.988Z,48.74
2023-04-26T08:05:17.200Z,48.84
2023-04-26T08:07:45.176Z,49.04
2023-04-26T08:10:13.031Z,48.92
2023-04-26T08:12:40.980Z,49.18
2023-04-26T08:15:10.621Z,49.43
2023-04-26T08:17:38.679Z,49.43
2023-04-26T08:20:07.477Z,49.31
2023-04-26T08:22:35.390Z,49.07
2023-04-26T08:25:04.835Z,49.27
2023-04-26T08:27:34.654Z,48.93
2023-04-26T08:30:02.346Z,49.08
2023-04-26T08:32:31.406Z,49.30
2023-04-26T08:34:59.655Z,49.40
2023-04-26T08:37:29.255Z,49.17
2023-04-26T08:39:57.526Z,49.51
2023-04-26T08:42:27.772Z,49.55
2023-04-26T08:44:55.844Z,49.62
2023-04-26T08:47:49.803Z,49.22
2023-04-26T08:50:25.267Z,49.25
2023-04-26T08:52:53.397Z,51.00
2023-04-26T08:55:21.993Z,50.27
2023-04-26T08:57:52.948Z,49.90
2023-04-26T09:00:24.119Z,50.24
2023-04-26T09:02:53.785Z,50.28
2023-04-26T09:05:24.801Z,50.08
2023-04-26T09:07:57.957Z,50.09
2023-04-26T09:10:32.373Z,49.99
2023-04-26T09:13:00.310Z,49.14
2023-04-26T09:15:28.464Z,49.76
2023-04-26T09:17:56.173Z,49.94
2023-04-26T09:20:33.045Z,49.23
2023-04-26T09:23:03.888Z,49.03
2023-04-26T09:25:33.053Z,49.21
2023-04-26T09:28:03.980Z,49.41
2023-04-26T09:30:40.128Z,49.04
2023-04-26T09:33:09.622Z,49.10
2023-04-26T09:35:39.588Z,48.85
2023-04-26T09:38:18.060Z,49.38
2023-04-26T09:40:48.346Z,49.66
2023-04-26T09:43:21.236Z,49.23
2023-04-26T09:45:52.930Z,49.63
2023-04-26T09:48:26.164Z,49.80
2023-04-26T09:50:56.181Z,49.58
2023-04-26T09:53:37.747Z,49.91
2023-04-26T09:56:19.875Z,49.89
2023-04-26T09:58:47.718Z,49.88
2023-04-26T10:01:18.153Z,50.25
2023-04-26T10:03:49.370Z,50.49
2023-04-26T10:06:17.465Z,50.90
2023-04-26T10:08:45.705Z,50.70
2023-04-26T10:11:14.273Z,50.97
2023-04-26T10:13:43.222Z,50.96
2023-04-26T10:16:11.166Z,51.33
2023-04-26T10:18:39.053Z,51.09
2023-04-26T10:21:15.650Z,51.62
2023-04-26T10:23:44.085Z,51.45
2023-04-26T10:26:55.073Z,51.93
2023-04-26T10:29:28.113Z,51.76
2023-04-26T10:32:04.730Z,52.21
2023-04-26T10:34:37.283Z,51.99
2023-04-26T10:37:16.439Z,51.96
2023-04-26T10:39:45.720Z,52.24
2023-04-26T10:42:24.070Z,52.30
2023-04-26T10:45:00.069Z,52.07
2023-04-26T10:47:37.476Z,52.18
2023-04-26T10:50:10.868Z,52.46
2023-04-26T10:52:59.613Z,52.50
2023-04-26T10:55:39.744Z,52.35
2023-04-26T10:58:30.395Z,52.15
2023-04-26T11:01:04.711Z,52.12
2023-04-26T11:03:32.940Z,51.82
2023-04-26T11:06:01.999Z,51.67
2023-04-26T11:08:32.113Z,51.65
2023-04-26T11:11:03.997Z,51.93
2023-04-26T11:13:42.498Z,51.92
2023-04-26T11:16:12.362Z,51.69
2023-04-26T11:18:42.412Z,51.74
2023-04-26T11:21:12.462Z,51.65
2023-04-26T11:23:40.526Z,51.85
2023-04-26T11:26:09.608Z,51.34
2023-04-26T11:28:39.196Z,51.27
2023-04-26T11:31:07.844Z,51.30
2023-04-26T11:33:35.780Z,51.25
2023-04-26T11:36:04.242Z,51.10
2023-04-26T11:38:32.069Z,51.07
2023-04-26T11:41:01.828Z,51.49
2023-04-26T11:43:33.903Z,51.49
2023-04-26T11:46:02.153Z,51.49
2023-04-26T11:48:31.147Z,51.60
2023-04-26T11:51:04.074Z,51.70
2023-04-26T11:53:42.769Z,52.30
2023-04-26T11:56:22.129Z,52.39
2023-04-26T11:58:52.252Z,52.24
2023-04-26T12:01:25.494Z,52.09
2023-04-26T12:03:56.094Z,52.01
2023-04-26T12:06:33.204Z,52.21
2023-04-26T12:09:05.946Z,52.52
2023-04-26T12:11:33.795Z,51.98
2023-04-26T12:14:02.599Z,52.34
2023-04-26T12:16:30.509Z,52.18
2023-04-26T12:18:58.501Z,52.18
2023-04-26T12:21:28.255Z,52.13
2023-04-26T12:23:58.570Z,51.92
2023-04-26T12:26:46.718Z,51.91
2023-04-26T12:29:14.738Z,52.11
2023-04-26T12:31:43.192Z,52.01
2023-04-26T12:34:11.151Z,52.00
2023-04-26T12:36:48.406Z,51.84
2023-04-26T12:39:16.944Z,51.64
2023-04-26T12:41:45.838Z,51.78
2023-04-26T12:44:15.706Z,51.68
2023-04-26T12:46:44.052Z,51.46
2023-04-26T12:49:12.015Z,51.71
2023-04-26T12:51:39.856Z,51.94
2023-04-26T12:54:07.957Z,51.98
2023-04-26T12:56:38.242Z,51.59
2023-04-26T12:59:06.715Z,51.76
2023-04-26T13:01:34.463Z,51.99
2023-04-26T13:04:04.951Z,51.81
2023-04-26T13:06:33.128Z,51.76
2023-04-26T13:09:01.788Z,51.95
2023-04-26T13:11:29.746Z,51.76
2023-04-26T13:13:57.544Z,51.64
2023-04-26T13:16:25.653Z,51.80
2023-04-26T13:18:53.329Z,51.84
2023-04-26T13:21:21.063Z,51.52
2023-04-26T13:23:48.914Z,51.56
2023-04-26T13:26:18.583Z,51.88
2023-04-26T13:28:47.716Z,52.10
2023-04-26T13:31:17.627Z,51.96
2023-04-26T13:33:47.427Z,52.12
2023-04-26T13:36:16.498Z,51.49
2023-04-26T13:38:44.852Z,51.34
2023-04-26T13:41:12.887Z,51.21
2023-04-26T13:43:40.773Z,51.03
2023-04-26T13:46:08.622Z,50.85
2023-04-26T13:48:36.402Z,50.63
2023-04-26T13:51:07.007Z,50.44
2023-04-26T13:53:35.232Z,50.86
2023-04-26T13:56:02.874Z,50.71
2023-04-26T13:58:31.024Z,50.76
2023-04-26T14:00:58.769Z,50.71
2023-04-26T14:03:27.215Z,50.55
2023-04-26T14:05:56.653Z,50.46
2023-04-26T14:08:24.328Z,50.03
2023-04-26T14:10:52.985Z,50.30
2023-04-26T14:13:20.565Z,50.47
2023-04-26T14:15:48.437Z,49.79
2023-04-26T14:18:17.433Z,50.20
2023-04-26T14:20:45.561Z,50.14
2023-04-26T14:23:13.404Z,50.34
2023-04-26T14:25:41.213Z,49.74
2023-04-26T14:28:08.970Z,49.81
2023-04-26T14:30:36.676Z,50.18
2023-04-26T14:33:04.414Z,50.09
2023-04-26T14:35:32.223Z,49.99
2023-04-26T14:38:00.056Z,49.94
2023-04-26T14:40:28.005Z,49.56
2023-04-26T14:42:55.758Z,49.54
2023-04-26T14:45:30.397Z,49.35
2023-04-26T14:48:01.965Z,49.62
2023-04-26T14:50:29.792Z,49.53
2023-04-26T14:52:57.661Z,49.28
2023-04-26T14:55:27.363Z,49.41
2023-04-26T14:57:55.095Z,49.11
2023-04-26T15:00:23.248Z,49.28
2023-04-26T15:02:51.578Z,49.03
2023-04-26T15:05:21.089Z,48.88
2023-04-26T15:07:48.897Z,49.10
2023-04-26T15:10:16.792Z,48.90
2023-04-26T15:12:44.907Z,49.34
2023-04-26T15:15:12.689Z,49.54
2023-04-26T15:17:40.635Z,49.22
2023-04-26T15:20:10.003Z,49.44
2023-04-26T15:22:39.058Z,49.45
2023-04-26T15:25:07.548Z,49.45
2023-04-26T15:27:35.969Z,49.69
2023-04-26T15:30:05.005Z,49.48
2023-04-26T15:32:32.773Z,49.94
2023-04-26T15:35:00.709Z,49.77
2023-04-26T15:37:28.686Z,49.99
2023-04-26T15:39:56.326Z,49.88
2023-04-26T15:42:24.035Z,49.54
2023-04-26T15:44:51.721Z,49.74
2023-04-26T15:47:19.585Z,49.63
2023-04-26T15:49:47.353Z,49.58
2023-04-26T15:52:17.201Z,49.38
2023-04-26T15:54:44.906Z,49.48
2023-04-26T15:57:12.818Z,49.75
2023-04-26T15:59:42.452Z,49.39
2023-04-26T16:02:10.235Z,49.81
2023-04-26T16:04:38.317Z,49.78
2023-04-26T16:07:06.338Z,49.76
2023-04-26T16:09:34.324Z,50.12
2023-04-26T16:12:03.766Z,50.12
2023-04-26T16:14:35.718Z,50.23
2023-04-26T16:17:05.258Z,50.02
2023-04-26T16:19:33.037Z,51.03
2023-04-26T16:22:00.795Z,50.33
2023-04-26T16:24:28.581Z,50.26
2023-04-26T16:26:56.405Z,50.57
2023-04-26T16:29:25.158Z,50.03
2023-04-26T16:31:53.417Z,50.21
2023-04-26T16:34:22.047Z,49.98
2023-04-26T16:36:49.926Z,49.92
2023-04-26T16:39:17.992Z,49.62
2023-04-26T16:41:46.207Z,50.08
2023-04-26T16:44:16.377Z,50.08
2023-04-26T16:46:44.448Z,49.65
2023-04-26T16:49:12.251Z,49.92
2023-04-26T16:51:40.081Z,49.55
2023-04-26T16:54:07.805Z,49.68
2023-04-26T16:56:35.635Z,50.07
2023-04-26T16:59:03.295Z,49.71
2023-04-26T17:01:30.990Z,50.68
2023-04-26T17:03:58.869Z,51.26
2023-04-26T17:06:26.833Z,50.97
2023-04-26T17:08:54.735Z,50.88
2023-04-26T17:11:23.116Z,50.60
2023-04-26T17:13:50.895Z,50.58
2023-04-26T17:16:18.780Z,51.08
2023-04-26T17:18:46.615Z,51.17
2023-04-26T17:21:14.429Z,51.98
2023-04-26T17:23:42.212Z,53.16
2023-04-26T17:26:09.945Z,52.02
2023-04-26T17:28:39.159Z,51.65
2023-04-26T17:31:07.073Z,51.51
2023-04-26T17:33:34.928Z,51.14
2023-04-26T17:36:02.905Z,50.72
2023-04-26T17:38:31.076Z,51.08
2023-04-26T17:41:00.057Z,50.87
2023-04-26T17:43:27.790Z,50.58
2023-04-26T17:45:55.567Z,50.51
2023-04-26T17:48:23.371Z,50.55
2023-04-26T17:50:52.954Z,50.52
2023-04-26T17:53:21.680Z,50.58
2023-04-26T17:55:49.682Z,50.46
2023-04-26T17:58:17.316Z,49.69
2023-04-26T18:00:46.221Z,49.54
2023-04-26T18:03:14.528Z,49.98
2023-04-26T18:05:42.588Z,49.79
2023-04-26T18:08:10.942Z,50.15
2023-04-26T18:10:38.861Z,50.06
2023-04-26T18:13:12.318Z,50.44
2023-04-26T18:15:40.454Z,50.50
2023-04-26T18:18:08.895Z,50.34
2023-04-26T18:20:39.175Z,50.51
2023-04-26T18:23:07.048Z,50.68
2023-04-26T18:25:38.364Z,50.14
2023-04-26T18:28:09.064Z,50.18
2023-04-26T18:30:40.326Z,49.96
2023-04-26T18:33:08.842Z,52.05
2023-04-26T18:35:37.397Z,51.23
2023-04-26T18:38:05.263Z,50.29
2023-04-26T18:40:33.161Z,50.28
2023-04-26T18:43:01.562Z,50.12
2023-04-26T18:45:29.315Z,49.82
2023-04-26T18:47:57.367Z,49.77
2023-04-26T18:50:25.680Z,49.94
2023-04-26T18:52:53.841Z,49.97
2023-04-26T18:55:21.920Z,49.68
2023-04-26T18:57:50.109Z,49.80
2023-04-26T19:00:18.714Z,49.67
2023-04-26T19:02:46.976Z,49.75
2023-04-26T19:05:15.402Z,49.81
2023-04-26T19:07:43.383Z,49.76
2023-04-26T19:10:12.960Z,49.79
2023-04-26T19:12:45.840Z,49.99
2023-04-26T19:15:14.369Z,50.36
2023-04-26T19:17:42.544Z,50.18
2023-04-26T19:20:13.190Z,49.95
2023-04-26T19:22:46.803Z,50.25
2023-04-26T19:25:14.961Z,50.25
2023-04-26T19:27:42.722Z,50.22
2023-04-26T19:30:11.147Z,51.55
2023-04-26T19:32:41.924Z,50.63
2023-04-26T19:35:10.293Z,50.69
2023-04-26T19:37:38.254Z,50.62
2023-04-26T19:40:07.463Z,50.13
2023-04-26T19:42:35.374Z,50.16
2023-04-26T19:45:03.723Z,50.25
2023-04-26T19:47:32.349Z,50.03
2023-04-26T19:50:00.334Z,50.11
2023-04-26T19:52:28.413Z,50.42
2023-04-26T19:54:58.775Z,51.11
2023-04-26T19:57:27.090Z,50.89
2023-04-26T19:59:58.764Z,51.72
2023-04-26T20:02:30.059Z,51.54
2023-04-26T20:05:03.916Z,51.66
2023-04-26T20:07:32.214Z,51.76
2023-04-26T20:09:59.985Z,51.96
2023-04-26T20:12:28.000Z,51.71
2023-04-26T20:14:55.838Z,51.50
2023-04-26T20:17:23.826Z,51.60
2023-04-26T20:19:54.472Z,51.25
2023-04-26T20:22:22.425Z,51.82
2023-04-26T20:24:51.525Z,51.63
2023-04-26T20:27:19.409Z,51.68
2023-04-26T20:29:51.293Z,51.38
2023-04-26T20:32:53.181Z,51.52
2023-04-26T20:35:27.477Z,51.56
2023-04-26T20:38:11.536Z,51.77
2023-04-26T20:40:48.944Z,51.62
2023-04-26T20:43:19.792Z,51.82
2023-04-26T20:45:47.939Z,51.76
2023-04-26T20:48:17.761Z,51.84
2023-04-26T20:50:51.860Z,51.79
2023-04-26T20:53:25.478Z,51.89
2023-04-26T20:55:58.319Z,51.94
2023-04-26T20:58:46.392Z,51.87
2023-04-26T21:01:44.156Z,52.08
2023-04-26T21:04:13.230Z,52.07
2023-04-26T21:06:41.237Z,52.06
2023-04-26T21:09:09.739Z,52.19
2023-04-26T21:11:52.553Z,52.58
2023-04-26T21:14:32.315Z,52.33
2023-04-26T21:17:01.570Z,51.96
2023-04-26T21:19:38.136Z,52.01
2023-04-26T21:22:20.745Z,51.76
2023-04-26T21:25:20.031Z,51.91
2023-04-26T21:27:53.833Z,52.13
2023-04-26T21:33:38.450Z,53.01
2023-04-26T21:36:22.448Z,52.43
2023-04-26T21:38:53.693Z,52.59
2023-04-26T21:41:28.976Z,52.49
2023-04-26T21:44:07.294Z,51.97
2023-04-26T21:46:41.458Z,52.06
2023-04-26T21:52:40.468Z,52.20
2023-04-26T21:56:13.083Z,52.19
2023-04-26T21:59:10.056Z,52.00
2023-04-26T22:01:46.844Z,52.09
2023-04-26T22:04:43.343Z,52.08
2023-04-26T22:07:22.579Z,52.02
2023-04-26T22:10:18.013Z,52.02
2023-04-26T22:13:13.517Z,52.19
2023-04-26T22:15:44.534Z,51.95
2023-04-26T22:18:12.812Z,52.26
2023-04-26T22:20:49.154Z,52.03
2023-04-26T22:23:17.200Z,52.42
2023-04-26T22:25:45.541Z,53.17
2023-04-26T22:29:01.259Z,52.59
2023-04-26T22:32:02.049Z,52.25
2023-04-26T22:37:36.328Z,51.85
2023-04-26T22:40:19.031Z,52.16
2023-04-26T22:45:34.295Z,51.99
2023-04-26T22:48:10.218Z,52.31
2023-04-26T22:51:10.741Z,52.32
2023-04-26T22:56:58.561Z,52.50
2023-04-26T22:59:31.116Z,52.34
2023-04-26T23:02:31.272Z,52.18
2023-04-26T23:05:11.931Z,52.39
2023-04-26T23:07:40.419Z,52.07
2023-04-26T23:10:12.127Z,52.21
2023-04-26T23:12:41.534Z,51.81
2023-04-26T23:15:42.881Z,51.94
2023-04-26T23:18:10.932Z,51.74
2023-04-26T23:20:46.363Z,51.75
2023-04-26T23:23:19.346Z,51.81
2023-04-26T23:25:54.999Z,51.27
2023-04-26T23:28:23.345Z,51.15
2023-04-26T23:30:54.662Z,51.43
2023-04-26T23:33:24.442Z,51.55
2023-04-26T23:35:57.906Z,51.21
2023-04-26T23:38:26.494Z,51.34
2023-04-26T23:40:56.201Z,51.20
2023-04-26T23:43:24.381Z,51.11
2023-04-26T23:45:52.789Z,51.17
2023-04-26T23:48:20.896Z,51.48
2023-04-26T23:50:49.777Z,51.41
2023-04-26T23:53:21.095Z,51.26
2023-04-26T23:55:49.143Z,50.91
2023-04-26T23:58:17.250Z,50.89
